Time;durP1;ratioP1;P1;durP2;ratioP2;P2;SDS_P1;SDS_P2;PMS_P1;PMS_P2;Temp;Humidity;BMP_temperature;BMP_pressure;BME280_temperature;BME280_humidity;BME280_pressure;Samples;Min_cycle;Max_cycle;Signal;HPM_P1;HPM_P2
2022/02/02 00:01:04;;;;;;;2.83;1.20;;;6.20;99.90;;;;;;5061912;28;20509;-62
2022/02/02 00:03:29;;;;;;;1.73;0.85;;;6.20;99.90;;;;;;5051301;28;20182;-62
2022/02/02 00:06:09;;;;;;;2.03;1.20;;;6.20;99.90;;;;;;5051713;28;20236;-62
2022/02/02 00:09:01;;;;;;;1.85;1.17;;;6.20;99.90;;;;;;5051437;28;20201;-61
2022/02/02 00:12:10;;;;;;;4.82;1.45;;;6.10;99.90;;;;;;5051687;28;20183;-62
2022/02/02 00:16:48;;;;;;;4.07;1.80;;;6.00;99.90;;;;;;5052545;28;20182;-61
2022/02/02 00:21:45;;;;;;;5.63;2.00;;;6.00;99.90;;;;;;5051141;28;20178;-61
2022/02/02 00:24:40;;;;;;;4.55;2.08;;;6.00;99.90;;;;;;5052239;28;20641;-61
2022/02/02 00:27:00;;;;;;;4.05;1.77;;;6.00;99.90;;;;;;5051383;28;20194;-62
2022/02/02 00:29:33;;;;;;;4.85;1.95;;;6.00;99.90;;;;;;5062468;28;20196;-61
2022/02/02 00:32:34;;;;;;;4.05;2.15;;;6.00;99.90;;;;;;5056882;28;20182;-60
2022/02/02 00:34:44;;;;;;;5.30;2.08;;;6.00;99.90;;;;;;5058426;28;20185;-61
2022/02/02 00:37:11;;;;;;;2.97;2.10;;;6.00;99.90;;;;;;5064890;28;20524;-56
2022/02/02 00:39:36;;;;;;;6.75;2.47;;;6.10;99.90;;;;;;5054204;28;20463;-61
2022/02/02 00:42:03;;;;;;;5.03;2.30;;;6.10;99.90;;;;;;5047065;28;20194;-61
2022/02/02 00:44:28;;;;;;;4.32;2.47;;;6.10;99.90;;;;;;5055996;28;20578;-61
2022/02/02 00:46:55;;;;;;;4.53;2.07;;;6.10;99.90;;;;;;5054268;28;20178;-60
2022/02/02 00:49:21;;;;;;;6.78;2.42;;;6.10;99.90;;;;;;5050942;28;20209;-62
2022/02/02 00:51:49;;;;;;;7.43;2.40;;;6.20;99.90;;;;;;5051908;28;20175;-61
2022/02/02 00:54:20;;;;;;;6.43;1.95;;;6.10;99.90;;;;;;5057599;28;22274;-61
2022/02/02 00:56:47;;;;;;;8.07;2.00;;;6.20;99.90;;;;;;5053733;28;20651;-61
2022/02/02 00:59:13;;;;;;;6.25;2.08;;;6.20;99.90;;;;;;5060359;28;20526;-61
2022/02/02 01:01:39;;;;;;;4.85;2.35;;;6.30;99.90;;;;;;5049857;28;20190;-58
2022/02/02 01:04:05;;;;;;;8.07;2.30;;;6.30;99.90;;;;;;5049645;28;20625;-61
2022/02/02 01:06:35;;;;;;;5.88;1.75;;;6.40;99.90;;;;;;5053113;28;20182;-61
2022/02/02 01:19:38;;;;;;;8.57;2.42;;;6.40;99.90;;;;;;5051585;28;20216;-61
2022/02/02 01:22:17;;;;;;;9.10;2.42;;;6.40;99.90;;;;;;5047934;28;20194;-61
2022/02/02 01:27:48;;;;;;;5.75;2.45;;;6.50;99.90;;;;;;5051235;28;20216;-60
2022/02/02 01:30:14;;;;;;;6.18;2.53;;;6.50;99.90;;;;;;5048101;28;20193;-61
2022/02/02 01:32:39;;;;;;;10.67;2.30;;;6.50;99.90;;;;;;5051221;28;20182;-60
2022/02/02 01:35:07;;;;;;;12.37;2.90;;;6.50;99.90;;;;;;5046022;28;20435;-61
2022/02/02 01:37:34;;;;;;;7.00;2.28;;;6.40;99.90;;;;;;5050733;28;20170;-61
2022/02/02 01:40:07;;;;;;;7.97;3.05;;;6.40;99.90;;;;;;5048282;28;20182;-61
2022/02/02 01:42:41;;;;;;;9.60;2.55;;;6.50;99.90;;;;;;5046568;28;21569;-61
2022/02/02 01:45:16;;;;;;;6.82;2.45;;;6.50;99.90;;;;;;5048512;28;20227;-61
2022/02/02 01:47:54;;;;;;;9.82;3.15;;;6.60;99.90;;;;;;5049432;28;20194;-61
2022/02/02 01:50:23;;;;;;;7.10;2.92;;;6.60;99.90;;;;;;5048947;28;20194;-61
2022/02/02 01:55:39;;;;;;;9.63;3.03;;;6.50;99.90;;;;;;5050754;28;20287;-61
2022/02/02 02:00:36;;;;;;;9.35;3.58;;;6.30;99.90;;;;;;5045831;28;20556;-62
2022/02/02 02:03:02;;;;;;;9.00;3.30;;;6.10;99.90;;;;;;5052998;28;20193;-52
2022/02/02 02:05:28;;;;;;;8.02;2.63;;;5.90;99.90;;;;;;5048566;28;20220;-61
2022/02/02 02:07:54;;;;;;;10.73;3.25;;;5.90;99.90;;;;;;5051306;28;20241;-61
2022/02/02 02:10:22;;;;;;;8.47;2.90;;;5.80;99.90;;;;;;5047005;28;20202;-62
2022/02/02 02:12:56;;;;;;;16.17;3.42;;;5.70;99.90;;;;;;5055953;28;20619;-61
2022/02/02 02:15:27;;;;;;;10.20;3.05;;;5.70;99.90;;;;;;5050744;28;20177;-62
2022/02/02 02:17:52;;;;;;;10.23;3.20;;;5.70;99.90;;;;;;5058773;28;20186;-60
2022/02/02 02:20:18;;;;;;;7.37;3.80;;;5.70;99.90;;;;;;5048074;28;20182;-62
2022/02/02 02:22:44;;;;;;;7.53;2.87;;;5.70;99.90;;;;;;5054253;28;20189;-61
2022/02/02 02:25:23;;;;;;;9.68;3.15;;;5.80;99.90;;;;;;5047989;28;20178;-61
2022/02/02 02:27:49;;;;;;;12.88;3.88;;;5.80;99.90;;;;;;5053233;28;20221;-61
2022/02/02 02:30:26;;;;;;;5.75;2.47;;;5.90;99.90;;;;;;5051228;28;20178;-54
2022/02/02 02:57:13;;;;;;;6.88;2.90;;;6.30;99.90;;;;;;5052242;28;20188;-61
2022/02/02 02:59:48;;;;;;;6.30;2.60;;;6.30;99.90;;;;;;5059314;28;20272;-62
2022/02/02 03:32:52;;;;;;;6.80;2.72;;;6.60;99.90;;;;;;5052934;28;20182;-60
2022/02/02 03:35:24;;;;;;;7.20;2.50;;;6.60;99.90;;;;;;5051011;28;20898;-61
2022/02/02 03:56:43;;;;;;;7.37;2.43;;;6.50;99.90;;;;;;5052878;28;20174;-61
2022/02/02 04:04:45;;;;;;;7.72;2.47;;;6.60;99.90;;;;;;5062670;28;22173;-61
2022/02/02 04:07:19;;;;;;;6.53;2.17;;;6.60;99.90;;;;;;5051615;28;20190;-60
2022/02/02 04:09:46;;;;;;;7.03;2.53;;;6.60;99.90;;;;;;5051188;28;20170;-61
2022/02/02 04:12:39;;;;;;;5.43;1.92;;;6.60;99.90;;;;;;5052577;28;20182;-61
2022/02/02 04:51:27;;;;;;;6.03;2.70;;;6.50;99.90;;;;;;5052005;28;20193;-51
2022/02/02 04:55:46;;;;;;;9.15;2.88;;;6.30;99.90;;;;;;5053937;28;20178;-53
2022/02/02 04:58:22;;;;;;;7.30;2.15;;;6.30;99.90;;;;;;5057465;28;20284;-53
2022/02/02 05:03:43;;;;;;;9.77;3.10;;;6.30;99.90;;;;;;5058145;28;20281;-55
2022/02/02 05:06:25;;;;;;;7.22;2.72;;;6.20;99.90;;;;;;5054705;28;20197;-53
2022/02/02 05:41:11;;;;;;;12.38;2.83;;;6.00;99.90;;;;;;5054473;28;20206;-53
2022/02/02 05:52:17;;;;;;;5.18;2.47;;;5.90;99.90;;;;;;5065747;28;20248;-53
2022/02/02 05:54:43;;;;;;;7.13;2.73;;;5.90;99.90;;;;;;5067472;28;20193;-53
2022/02/02 05:57:12;;;;;;;9.17;2.50;;;5.90;99.90;;;;;;5055244;28;20182;-55
2022/02/02 05:59:42;;;;;;;10.13;2.63;;;6.00;99.90;;;;;;5047032;28;20253;-51
2022/02/02 06:02:14;;;;;;;7.10;2.60;;;6.00;99.90;;;;;;5048028;28;20209;-49
2022/02/02 06:04:47;;;;;;;7.22;2.72;;;5.90;99.90;;;;;;5060085;28;20194;-56
2022/02/02 06:07:14;;;;;;;5.55;2.30;;;5.90;99.90;;;;;;5060936;28;20182;-53
2022/02/02 06:09:46;;;;;;;8.20;2.97;;;5.90;99.90;;;;;;5049883;28;20178;-52
2022/02/02 06:12:16;;;;;;;9.05;2.78;;;5.90;99.90;;;;;;5061175;28;20663;-54
2022/02/02 06:14:44;;;;;;;7.47;2.97;;;6.00;99.90;;;;;;5051132;28;20178;-53
2022/02/02 06:17:10;;;;;;;10.93;3.30;;;5.90;99.90;;;;;;5036836;28;20178;-55
2022/02/02 06:19:36;;;;;;;6.00;2.50;;;6.00;99.90;;;;;;5049111;28;20235;-54
2022/02/02 06:22:21;;;;;;;10.33;3.00;;;5.90;99.90;;;;;;5055669;28;20178;-52
2022/02/02 06:25:08;;;;;;;14.60;3.20;;;5.90;99.90;;;;;;5054209;28;20190;-56
2022/02/02 06:27:37;;;;;;;8.57;2.30;;;5.90;99.90;;;;;;5050778;28;20251;-60
2022/02/02 06:30:08;;;;;;;5.50;2.35;;;6.00;99.90;;;;;;5050275;28;20155;-55
2022/02/02 06:32:50;;;;;;;8.48;2.30;;;5.80;99.90;;;;;;5049228;28;20175;-53
2022/02/02 06:35:17;;;;;;;4.07;2.95;;;5.90;99.90;;;;;;5030653;28;21161;-54
2022/02/02 06:37:44;;;;;;;5.20;2.63;;;5.90;99.90;;;;;;5030708;28;20578;-53
2022/02/02 06:40:11;;;;;;;4.75;2.35;;;5.90;99.90;;;;;;5058088;28;20181;-53
2022/02/02 06:42:38;;;;;;;4.15;2.50;;;5.90;99.90;;;;;;5046266;28;20196;-53
2022/02/02 06:45:06;;;;;;;4.50;1.98;;;5.90;99.90;;;;;;5049751;28;20296;-54
2022/02/02 06:47:33;;;;;;;10.40;2.38;;;5.70;99.90;;;;;;5049842;28;20205;-53
2022/02/02 06:50:10;;;;;;;7.68;2.33;;;5.60;99.90;;;;;;5050080;28;20170;-55
2022/02/02 06:52:43;;;;;;;8.07;2.78;;;5.60;99.90;;;;;;5059970;28;20312;-55
2022/02/02 06:55:25;;;;;;;7.75;2.45;;;5.60;99.90;;;;;;5069819;28;20173;-54
2022/02/02 06:58:32;;;;;;;7.00;2.53;;;5.60;99.90;;;;;;5066521;28;20181;-53
2022/02/02 07:01:27;;;;;;;5.40;2.35;;;5.60;99.90;;;;;;5059145;28;20174;-54
2022/02/02 07:06:39;;;;;;;8.23;2.83;;;5.70;99.90;;;;;;5052516;28;20190;-55
2022/02/02 07:14:38;;;;;;;3.45;2.00;;;5.90;99.90;;;;;;5056604;28;20178;-53
2022/02/02 07:20:07;;;;;;;7.85;2.75;;;5.90;99.90;;;;;;5053312;28;20235;-55
2022/02/02 07:22:59;;;;;;;8.90;2.58;;;5.90;99.90;;;;;;5053672;28;20187;-53
2022/02/02 07:28:15;;;;;;;6.55;2.42;;;6.00;99.90;;;;;;5054109;28;20183;-54
2022/02/02 07:33:14;;;;;;;7.90;2.75;;;5.90;99.90;;;;;;5051318;28;20840;-52
2022/02/02 07:36:00;;;;;;;8.35;3.00;;;5.90;99.90;;;;;;5051432;28;20174;-53
2022/02/02 07:38:31;;;;;;;7.80;2.40;;;5.80;99.90;;;;;;5049788;28;20202;-53
2022/02/02 07:41:05;;;;;;;8.18;2.95;;;5.70;99.90;;;;;;5052014;28;20687;-54
2022/02/02 07:43:40;;;;;;;7.78;2.45;;;5.70;99.90;;;;;;5052366;28;20165;-56
2022/02/02 07:46:07;;;;;;;13.10;2.90;;;5.70;99.90;;;;;;5051919;28;20161;-51
2022/02/02 07:48:38;;;;;;;10.50;2.83;;;5.80;99.90;;;;;;5052455;28;20190;-55
2022/02/02 07:51:05;;;;;;;8.50;2.85;;;5.80;99.90;;;;;;5051494;28;20254;-56
2022/02/02 07:53:39;;;;;;;8.30;2.60;;;5.70;99.90;;;;;;5052344;28;20280;-62
2022/02/02 07:56:10;;;;;;;4.78;2.35;;;5.60;99.90;;;;;;5051262;28;20166;-57
2022/02/02 07:58:39;;;;;;;6.95;3.10;;;5.50;99.90;;;;;;5052285;28;20213;-59
2022/02/02 08:01:06;;;;;;;8.10;2.28;;;5.40;99.90;;;;;;5051844;28;20549;-57
2022/02/02 08:03:38;;;;;;;5.78;2.30;;;5.40;99.90;;;;;;5050149;28;20177;-54
2022/02/02 08:06:04;;;;;;;13.13;3.90;;;5.40;99.90;;;;;;5048165;28;20712;-57
2022/02/02 08:08:33;;;;;;;6.30;2.38;;;5.40;99.90;;;;;;5054347;28;20285;-53
2022/02/02 08:11:04;;;;;;;5.25;2.35;;;5.40;99.90;;;;;;5064049;28;20178;-55
2022/02/02 08:13:38;;;;;;;5.28;2.20;;;5.40;99.90;;;;;;5071987;28;20243;-52
2022/02/02 08:16:11;;;;;;;8.13;2.50;;;5.30;99.90;;;;;;5053158;28;20187;-54
2022/02/02 08:18:39;;;;;;;10.95;4.13;;;5.30;99.90;;;;;;5051945;28;20665;-59
2022/02/02 08:21:04;;;;;;;9.77;2.85;;;5.30;99.90;;;;;;5064514;28;20184;-56
2022/02/02 08:23:30;;;;;;;9.70;3.70;;;5.40;99.90;;;;;;5071977;28;20175;-55
2022/02/02 08:25:58;;;;;;;8.77;2.53;;;5.40;99.90;;;;;;5061643;28;20567;-53
2022/02/02 08:28:24;;;;;;;6.47;2.25;;;5.40;99.90;;;;;;5057912;28;20198;-56
2022/02/02 08:30:50;;;;;;;11.00;2.60;;;5.40;99.90;;;;;;5071791;28;20203;-54
2022/02/02 08:33:21;;;;;;;5.00;2.10;;;5.40;99.90;;;;;;5057510;28;20177;-56
2022/02/02 08:35:51;;;;;;;10.90;2.70;;;5.40;99.90;;;;;;5056538;28;20190;-56
2022/02/02 08:40:55;;;;;;;6.93;3.63;;;5.20;99.90;;;;;;5058350;28;20178;-51
2022/02/02 08:43:26;;;;;;;10.90;2.90;;;5.10;99.90;;;;;;5071749;28;20184;-56
2022/02/02 08:45:56;;;;;;;8.48;2.63;;;5.10;99.90;;;;;;5052903;28;20269;-55
2022/02/02 08:48:25;;;;;;;7.00;2.53;;;5.10;99.90;;;;;;5059572;28;20540;-56
2022/02/02 08:50:56;;;;;;;11.82;3.40;;;5.10;99.90;;;;;;5068845;28;20227;-58
2022/02/02 08:56:09;;;;;;;8.50;2.63;;;5.30;99.90;;;;;;5051666;28;20906;-52
2022/02/02 08:58:42;;;;;;;11.30;3.22;;;5.40;99.90;;;;;;5051061;28;20182;-55
2022/02/02 09:01:32;;;;;;;9.05;2.90;;;5.50;99.90;;;;;;5050838;28;20193;-57
2022/02/02 09:06:38;;;;;;;7.55;3.00;;;5.50;99.90;;;;;;5050787;28;20216;-57
2022/02/02 09:09:16;;;;;;;9.37;2.90;;;5.60;99.90;;;;;;5057672;28;20237;-56
2022/02/02 09:20:46;;;;;;;9.60;3.40;;;5.60;99.90;;;;;;5006815;28;20295;-56
2022/02/02 09:23:27;;;;;;;7.75;2.53;;;5.50;99.90;;;;;;5041299;28;20779;-58
2022/02/02 09:36:30;;;;;;;7.80;3.42;;;5.80;99.90;;;;;;5044078;28;20714;-57
2022/02/02 09:38:59;;;;;;;5.70;2.97;;;5.80;99.90;;;;;;5037313;28;20570;-56
2022/02/02 09:43:58;;;;;;;10.63;3.47;;;5.80;99.90;;;;;;5059799;28;20265;-56
2022/02/02 09:46:29;;;;;;;10.25;3.00;;;5.80;99.90;;;;;;5051104;28;20174;-55
2022/02/02 09:49:01;;;;;;;13.98;3.10;;;5.90;99.90;;;;;;5049563;28;20199;-55
2022/02/02 09:51:41;;;;;;;9.60;3.17;;;5.90;99.90;;;;;;5064394;28;20201;-61
2022/02/02 09:54:16;;;;;;;6.78;2.88;;;5.90;99.90;;;;;;5069858;28;20290;-54
2022/02/02 10:05:05;;;;;;;5.88;2.67;;;6.30;99.90;;;;;;5068239;28;20186;-55
2022/02/02 10:15:28;;;;;;;8.40;2.75;;;6.50;99.90;;;;;;5064765;28;20265;-59
2022/02/02 10:18:06;;;;;;;5.28;2.50;;;6.50;99.90;;;;;;5051570;28;20589;-56
2022/02/02 10:20:32;;;;;;;6.40;2.63;;;6.50;99.90;;;;;;5060454;28;20178;-57
2022/02/02 10:23:00;;;;;;;4.32;2.60;;;6.40;99.90;;;;;;5063386;28;20189;-56
2022/02/02 10:25:27;;;;;;;9.38;2.35;;;6.50;99.90;;;;;;5049490;28;20189;-57
2022/02/02 10:28:09;;;;;;;8.25;2.28;;;6.50;99.90;;;;;;5053213;28;20301;-57
2022/02/02 10:30:35;;;;;;;6.70;2.97;;;6.60;99.90;;;;;;5062942;28;20181;-59
2022/02/02 10:33:02;;;;;;;6.47;2.90;;;6.60;99.90;;;;;;5057088;28;20205;-55
2022/02/02 10:35:31;;;;;;;5.53;2.30;;;6.60;99.90;;;;;;5054923;28;20914;-56
2022/02/02 10:38:05;;;;;;;9.50;2.90;;;6.60;99.90;;;;;;5068229;28;20265;-56
2022/02/02 10:40:48;;;;;;;6.60;2.47;;;6.50;99.90;;;;;;5055093;28;20614;-58
2022/02/02 10:43:37;;;;;;;5.00;2.40;;;6.50;99.90;;;;;;5058282;28;20188;-57
2022/02/02 10:46:10;;;;;;;4.70;2.20;;;6.50;99.90;;;;;;5069418;28;20723;-64
2022/02/02 10:48:51;;;;;;;8.30;2.67;;;6.40;99.90;;;;;;5068761;28;20303;-57
2022/02/02 10:51:33;;;;;;;8.25;2.63;;;6.20;99.90;;;;;;5055894;28;20173;-55
2022/02/02 10:56:49;;;;;;;7.72;2.17;;;6.10;99.90;;;;;;5058628;28;20256;-58
2022/02/02 10:59:36;;;;;;;8.63;3.03;;;6.10;99.90;;;;;;5048276;28;20205;-56
2022/02/02 11:07:14;;;;;;;8.15;2.72;;;6.20;99.90;;;;;;5049257;28;20190;-53
2022/02/02 11:09:41;;;;;;;5.15;2.78;;;6.30;99.90;;;;;;5052077;28;20717;-57
2022/02/02 11:12:08;;;;;;;10.15;2.10;;;6.30;99.90;;;;;;5057639;28;20656;-55
2022/02/02 11:14:59;;;;;;;5.22;2.95;;;6.40;99.90;;;;;;5052821;28;20197;-57
2022/02/02 11:17:43;;;;;;;8.50;2.95;;;6.30;99.90;;;;;;5052019;28;20208;-56
2022/02/02 11:20:11;;;;;;;5.50;2.33;;;6.30;99.90;;;;;;5059975;28;20192;-57
2022/02/02 11:22:49;;;;;;;9.55;3.40;;;6.10;99.90;;;;;;5052062;28;20185;-54
2022/02/02 11:25:15;;;;;;;11.07;2.90;;;6.00;99.90;;;;;;5067604;28;20188;-54
2022/02/02 11:27:46;;;;;;;6.90;2.60;;;6.00;99.90;;;;;;5061820;28;20614;-57
2022/02/02 11:30:23;;;;;;;13.27;2.92;;;6.10;99.90;;;;;;5049137;28;20202;-54
2022/02/02 11:32:53;;;;;;;5.82;2.53;;;6.30;99.90;;;;;;5060952;28;20589;-54
2022/02/02 11:35:46;;;;;;;6.70;2.92;;;6.50;99.90;;;;;;5049185;28;20185;-57
2022/02/02 11:38:20;;;;;;;5.32;2.60;;;6.70;99.90;;;;;;5056958;28;20182;-57
2022/02/02 11:43:51;;;;;;;8.13;2.40;;;6.70;99.90;;;;;;5039827;28;20622;-58
2022/02/02 11:46:37;;;;;;;5.65;2.30;;;6.70;99.90;;;;;;5043901;28;20277;-56
2022/02/02 11:49:08;;;;;;;5.82;2.45;;;6.80;99.90;;;;;;5037923;28;20296;-57
2022/02/02 11:51:59;;;;;;;6.25;2.25;;;6.90;99.90;;;;;;5050769;28;20209;-58
2022/02/02 11:54:42;;;;;;;5.45;2.30;;;7.00;99.90;;;;;;5056465;28;20705;-57
2022/02/02 11:57:16;;;;;;;7.50;2.13;;;7.00;99.90;;;;;;5072286;28;20246;-56
2022/02/02 11:59:57;;;;;;;6.95;2.17;;;7.10;99.90;;;;;;5049776;28;20181;-54
2022/02/02 12:02:56;;;;;;;3.90;2.25;;;6.90;99.90;;;;;;5046125;28;20181;-60
2022/02/02 12:08:35;;;;;;;3.20;2.70;;;6.90;99.90;;;;;;5038186;28;20288;-58
2022/02/02 12:35:57;;;;;;;6.55;2.17;;;7.20;99.90;;;;;;5033013;28;20261;-57
2022/02/02 12:45:11;;;;;;;6.05;3.00;;;6.90;99.90;;;;;;5056246;28;20612;-54
2022/02/02 12:50:28;;;;;;;5.90;2.05;;;6.60;99.90;;;;;;5062942;28;20174;-57
2022/02/02 12:56:14;;;;;;;4.07;1.70;;;6.60;99.90;;;;;;5045546;28;20189;-55
2022/02/02 12:58:37;;;;;;;4.53;1.90;;;6.40;99.90;;;;;;5051091;28;20183;-55
2022/02/02 13:01:09;;;;;;;5.18;1.90;;;6.20;99.90;;;;;;5052577;28;20182;-53
2022/02/02 13:03:40;;;;;;;4.10;2.20;;;6.00;99.90;;;;;;5060902;28;20180;-56
2022/02/02 13:06:19;;;;;;;6.90;2.20;;;5.60;99.90;;;;;;5053687;28;20214;-52
2022/02/02 13:08:51;;;;;;;2.42;1.80;;;5.40;99.90;;;;;;5034623;28;20199;-54
2022/02/02 13:11:29;;;;;;;6.22;1.95;;;5.40;99.90;;;;;;5065941;28;20186;-53
2022/02/02 13:14:00;;;;;;;5.03;2.30;;;5.10;99.90;;;;;;5051200;28;20185;-57
2022/02/02 13:16:27;;;;;;;2.42;1.90;;;5.00;99.90;;;;;;5051619;28;20238;-54
2022/02/02 13:18:58;;;;;;;6.47;2.45;;;4.90;99.90;;;;;;5045651;28;20190;-51
2022/02/02 13:21:33;;;;;;;6.43;2.15;;;4.70;99.90;;;;;;5037292;28;20182;-57
2022/02/02 13:29:33;;;;;;;4.28;2.10;;;5.10;99.90;;;;;;5050152;28;20242;-56
2022/02/02 13:32:07;;;;;;;7.57;2.33;;;5.20;99.90;;;;;;5048165;28;20613;-57
2022/02/02 13:34:53;;;;;;;4.40;2.83;;;5.40;99.90;;;;;;5048935;28;20648;-58
2022/02/02 13:51:31;;;;;;;3.13;1.70;;;7.70;99.90;;;;;;5043218;28;20414;-59
2022/02/02 13:54:29;;;;;;;5.57;2.10;;;8.30;99.90;;;;;;5045259;28;20491;-55
2022/02/02 14:05:03;;;;;;;4.93;2.17;;;8.20;99.90;;;;;;5050753;28;20465;-57
2022/02/02 14:10:58;;;;;;;5.13;2.40;;;7.90;99.90;;;;;;5006572;28;20515;-56
2022/02/02 14:32:34;;;;;;;2.22;1.85;;;6.90;99.90;;;;;;5048952;28;20190;-55
2022/02/02 14:35:00;;;;;;;4.57;2.33;;;6.90;99.90;;;;;;5050226;28;20209;-55
2022/02/02 14:37:34;;;;;;;4.60;2.70;;;6.90;99.90;;;;;;5048856;28;20470;-53
2022/02/02 14:40:12;;;;;;;6.43;2.67;;;7.00;99.90;;;;;;5051650;28;20182;-54
2022/02/02 14:42:39;;;;;;;3.33;2.23;;;7.20;99.90;;;;;;5047247;28;20516;-57
2022/02/02 14:45:11;;;;;;;4.40;2.33;;;7.60;99.90;;;;;;5049377;28;20428;-55
2022/02/02 14:47:39;;;;;;;4.90;3.00;;;8.00;99.90;;;;;;5044168;28;20466;-59
2022/02/02 14:52:43;;;;;;;4.63;4.23;;;8.00;99.90;;;;;;5046325;28;20556;-61
2022/02/02 15:32:49;;;;;;;4.82;2.50;;;6.80;99.90;;;;;;5049278;28;20189;-61
2022/02/02 15:35:14;;;;;;;4.85;2.10;;;6.70;99.90;;;;;;5039514;28;20182;-58
2022/02/02 15:37:55;;;;;;;5.13;2.50;;;6.60;99.90;;;;;;5050061;28;20192;-58
2022/02/02 15:40:26;;;;;;;6.10;2.05;;;6.50;99.90;;;;;;5049633;28;20186;-60
2022/02/02 15:58:33;;;;;;;7.05;2.33;;;6.20;99.90;;;;;;5051012;28;20711;-59
2022/02/02 16:03:44;;;;;;;4.45;1.80;;;6.20;99.90;;;;;;5050759;28;20297;-59
2022/02/02 16:06:19;;;;;;;4.78;2.38;;;6.20;99.90;;;;;;5044770;28;20226;-59
2022/02/02 16:08:47;;;;;;;3.70;2.47;;;6.10;99.90;;;;;;5052798;28;20189;-59
2022/02/02 16:11:20;;;;;;;3.47;2.45;;;5.90;99.90;;;;;;5051541;28;20180;-60
2022/02/02 16:13:50;;;;;;;4.80;1.95;;;5.70;99.90;;;;;;5044784;28;20190;-59
2022/02/02 16:37:27;;;;;;;3.23;1.80;;;5.40;99.90;;;;;;5048820;28;20182;-61
2022/02/02 16:39:58;;;;;;;5.80;2.17;;;5.40;99.90;;;;;;5057023;28;20190;-61
2022/02/02 16:45:08;;;;;;;7.28;2.05;;;5.50;99.90;;;;;;5050396;28;20197;-59
2022/02/02 16:47:33;;;;;;;3.80;1.50;;;5.40;99.90;;;;;;5052381;28;21138;-60
2022/02/02 16:49:59;;;;;;;7.50;1.70;;;5.40;99.90;;;;;;5045784;28;20202;-60
2022/02/02 16:52:26;;;;;;;3.90;1.77;;;5.30;99.90;;;;;;5048250;28;20240;-61
2022/02/02 16:54:54;;;;;;;9.98;1.98;;;5.30;99.90;;;;;;5049569;28;20181;-60
2022/02/02 17:32:45;;;;;;;4.07;2.08;;;5.30;99.90;;;;;;5027513;28;20193;-62
2022/02/02 17:45:45;;;;;;;5.00;1.90;;;5.40;99.90;;;;;;5051634;28;20223;-64
2022/02/02 18:13:03;;;;;;;4.47;2.38;;;5.20;99.90;;;;;;5032233;28;20267;-62
2022/02/02 18:16:19;;;;;;;17.85;16.15;;;5.10;99.90;;;;;;5046390;28;20231;-63
2022/02/02 18:21:10;;;;;;;5.35;3.97;;;5.10;99.90;;;;;;5014567;28;20251;-61
2022/02/02 18:26:18;;;;;;;4.78;2.50;;;5.20;99.90;;;;;;5044410;28;20187;-61
2022/02/02 18:36:22;;;;;;;3.05;1.90;;;5.30;99.90;;;;;;5047889;28;20259;-64
2022/02/02 19:01:23;;;;;;;4.60;1.85;;;5.20;99.90;;;;;;4976432;28;20219;-62
2022/02/02 20:07:52;;;;;;;4.77;1.80;;;5.10;99.90;;;;;;5053595;28;20244;-61
2022/02/02 20:10:34;;;;;;;3.25;2.08;;;5.10;99.90;;;;;;5054886;28;20202;-62
2022/02/02 20:13:00;;;;;;;4.88;1.60;;;5.10;99.90;;;;;;5046347;28;20203;-64
2022/02/02 20:15:26;;;;;;;4.83;1.70;;;5.10;99.90;;;;;;5053348;28;20174;-63
2022/02/02 20:17:52;;;;;;;5.87;1.40;;;5.10;99.90;;;;;;5049188;28;20186;-63
2022/02/02 20:20:23;;;;;;;2.80;1.70;;;5.10;99.90;;;;;;5048796;28;20175;-64
2022/02/02 20:22:50;;;;;;;2.83;1.50;;;5.10;99.90;;;;;;5050246;28;20248;-64
2022/02/02 20:25:18;;;;;;;2.85;1.60;;;5.10;99.90;;;;;;5050342;28;20680;-64
2022/02/02 20:27:52;;;;;;;2.10;1.83;;;5.10;99.90;;;;;;5048962;28;20578;-62
2022/02/02 20:30:18;;;;;;;5.05;2.03;;;5.00;99.90;;;;;;5044140;28;20529;-63
2022/02/02 20:32:44;;;;;;;4.43;1.60;;;5.00;99.90;;;;;;5048996;28;20175;-63
2022/02/02 20:35:09;;;;;;;2.60;1.80;;;4.90;99.90;;;;;;5048570;28;20453;-62
2022/02/02 20:37:35;;;;;;;4.57;1.60;;;4.90;99.90;;;;;;5046248;28;20265;-58
2022/02/02 20:40:04;;;;;;;4.03;1.87;;;4.90;99.90;;;;;;5044972;28;20174;-63
2022/02/02 20:42:38;;;;;;;4.00;1.77;;;4.90;99.90;;;;;;5049506;28;20178;-63
2022/02/02 20:45:31;;;;;;;2.47;1.98;;;4.90;99.90;;;;;;5047403;28;20209;-63
2022/02/02 21:04:22;;;;;;;3.30;1.85;;;4.90;99.90;;;;;;5059958;28;20699;-55
2022/02/02 21:09:46;;;;;;;5.03;2.50;;;4.90;99.90;;;;;;5050699;28;20202;-56
2022/02/02 21:14:47;;;;;;;4.57;1.60;;;4.90;99.90;;;;;;5054037;28;20190;-57
2022/02/02 21:17:22;;;;;;;2.97;1.52;;;4.90;99.90;;;;;;5047707;28;20242;-53
2022/02/02 21:22:19;;;;;;;4.65;1.85;;;4.80;99.90;;;;;;5053613;28;20277;-54
2022/02/02 21:25:04;;;;;;;3.22;2.10;;;4.90;99.90;;;;;;5050464;28;20186;-54
2022/02/02 21:27:38;;;;;;;5.75;1.88;;;4.80;99.90;;;;;;5050824;28;20617;-56
2022/02/02 21:30:04;;;;;;;3.05;1.77;;;4.80;99.90;;;;;;5051307;28;20232;-58
2022/02/02 21:32:30;;;;;;;3.50;1.77;;;4.70;99.90;;;;;;5051419;28;20182;-55
2022/02/02 21:34:57;;;;;;;3.43;1.63;;;4.60;99.90;;;;;;5051715;28;20178;-59
2022/02/02 21:37:25;;;;;;;3.78;1.60;;;4.60;99.90;;;;;;5050964;28;20174;-55
2022/02/02 21:40:03;;;;;;;4.07;1.92;;;4.60;99.90;;;;;;5051179;28;20163;-61
2022/02/02 21:42:29;;;;;;;3.90;1.80;;;4.60;99.90;;;;;;5051527;28;20174;-55
2022/02/02 21:44:55;;;;;;;4.33;1.50;;;4.50;99.90;;;;;;5053574;28;20178;-58
2022/02/02 21:47:21;;;;;;;6.30;2.10;;;4.40;99.90;;;;;;5066321;28;20633;-55
2022/02/02 21:49:47;;;;;;;3.97;2.08;;;4.40;99.90;;;;;;5048630;28;20589;-58
2022/02/02 21:52:16;;;;;;;5.50;1.90;;;4.40;99.90;;;;;;5050579;28;20226;-57
2022/02/02 21:54:42;;;;;;;3.05;2.05;;;4.30;99.90;;;;;;5057882;28;20612;-60
2022/02/02 21:57:07;;;;;;;4.53;2.03;;;4.20;99.90;;;;;;5056784;28;20182;-57
2022/02/02 21:59:33;;;;;;;3.90;1.80;;;4.20;99.90;;;;;;5064170;28;20652;-56
2022/02/02 22:02:00;;;;;;;4.55;1.70;;;4.20;99.90;;;;;;5050095;28;20186;-57
2022/02/02 22:04:26;;;;;;;4.18;1.60;;;4.10;99.90;;;;;;5067059;28;20189;-57
2022/02/02 22:06:51;;;;;;;7.07;1.88;;;4.10;99.90;;;;;;5055949;28;20241;-56
2022/02/02 22:09:17;;;;;;;4.60;2.17;;;4.00;99.90;;;;;;5058856;28;20206;-59
2022/02/02 22:11:43;;;;;;;2.80;1.80;;;3.90;99.90;;;;;;5058976;28;20248;-59
2022/02/02 22:14:16;;;;;;;6.90;2.00;;;3.90;99.90;;;;;;5052921;28;20296;-56
2022/02/02 22:16:44;;;;;;;3.45;1.60;;;3.80;99.90;;;;;;5059534;28;20232;-54
2022/02/02 22:19:10;;;;;;;5.65;1.75;;;3.80;99.90;;;;;;5054195;28;20257;-57
2022/02/02 22:21:35;;;;;;;1.87;1.43;;;3.70;99.90;;;;;;5063674;28;20187;-61
2022/02/02 22:24:02;;;;;;;6.30;2.20;;;3.80;99.90;;;;;;5050384;28;20182;-57
2022/02/02 22:26:28;;;;;;;3.67;2.10;;;3.70;99.90;;;;;;5062381;28;20185;-53
2022/02/02 22:28:54;;;;;;;3.40;1.90;;;3.60;99.90;;;;;;5049083;28;20210;-53
2022/02/02 22:31:20;;;;;;;5.82;3.28;;;3.60;99.90;;;;;;5039869;28;20455;-56
2022/02/02 22:33:45;;;;;;;3.90;1.63;;;3.60;99.90;;;;;;5055755;28;20185;-57
2022/02/02 22:36:11;;;;;;;5.20;1.60;;;3.60;99.90;;;;;;5057241;28;20210;-57
2022/02/02 22:38:37;;;;;;;4.47;2.00;;;3.50;99.90;;;;;;5048928;28;20179;-54
2022/02/02 22:41:02;;;;;;;5.10;2.07;;;3.50;99.90;;;;;;5059109;28;20584;-51
2022/02/02 22:43:31;;;;;;;7.30;2.10;;;3.50;99.90;;;;;;5051939;28;20235;-57
2022/02/02 22:45:57;;;;;;;10.00;2.00;;;3.50;99.90;;;;;;5049666;28;20182;-56
2022/02/02 22:48:24;;;;;;;4.10;1.70;;;3.40;99.90;;;;;;5052609;28;20722;-57
2022/02/02 22:50:51;;;;;;;12.05;3.30;;;3.30;99.90;;;;;;5050139;28;20178;-54
2022/02/02 22:53:23;;;;;;;3.20;1.75;;;3.30;99.90;;;;;;5060326;28;20310;-57
2022/02/02 22:55:49;;;;;;;7.75;1.83;;;3.30;99.90;;;;;;5069951;28;20189;-59
2022/02/02 22:58:14;;;;;;;4.70;1.80;;;3.20;99.90;;;;;;5055730;28;20184;-58
2022/02/02 23:00:40;;;;;;;5.87;2.27;;;3.20;99.90;;;;;;5044579;28;20294;-62
2022/02/02 23:03:12;;;;;;;6.78;2.10;;;3.30;99.90;;;;;;5040768;28;20934;-58
2022/02/02 23:05:41;;;;;;;3.70;2.50;;;3.20;99.90;;;;;;5063221;28;20537;-58
2022/02/02 23:08:10;;;;;;;8.65;1.85;;;3.10;99.90;;;;;;5040253;28;20183;-61
2022/02/02 23:10:37;;;;;;;4.63;1.50;;;3.10;99.90;;;;;;5063307;28;20279;-60
2022/02/02 23:13:02;;;;;;;5.30;2.05;;;3.10;99.90;;;;;;5049737;28;20180;-57
2022/02/02 23:15:38;;;;;;;4.27;1.60;;;3.10;99.90;;;;;;5062682;28;20256;-58
2022/02/02 23:18:17;;;;;;;6.82;2.47;;;3.10;99.90;;;;;;5049391;28;20182;-57
2022/02/02 23:20:45;;;;;;;7.47;2.00;;;3.10;99.90;;;;;;5046960;28;20527;-55
2022/02/02 23:23:11;;;;;;;4.72;2.17;;;3.10;99.90;;;;;;5051693;28;20173;-58
2022/02/02 23:25:37;;;;;;;9.10;2.00;;;3.10;99.90;;;;;;5069953;28;20188;-57
2022/02/02 23:28:04;;;;;;;4.18;1.60;;;3.10;99.90;;;;;;5061999;28;20178;-57
2022/02/02 23:30:31;;;;;;;8.18;1.85;;;3.00;99.90;;;;;;5049889;28;20240;-57
2022/02/02 23:33:00;;;;;;;3.28;1.92;;;3.00;99.90;;;;;;5059854;28;20179;-57
2022/02/02 23:35:26;;;;;;;5.13;2.10;;;2.90;99.90;;;;;;5048534;28;20178;-57
2022/02/02 23:37:53;;;;;;;5.50;2.40;;;3.00;99.90;;;;;;5049414;28;20196;-57
2022/02/02 23:40:19;;;;;;;7.70;2.17;;;3.00;99.90;;;;;;5049125;28;20221;-56
2022/02/02 23:42:44;;;;;;;4.75;1.80;;;3.00;99.90;;;;;;5059289;28;20566;-57